createdAt,value
2018-12-24T00:00:42.673Z,11.78
2018-12-24T00:01:42.664Z,11.81
2018-12-24T00:02:42.654Z,11.82
2018-12-24T00:03:42.651Z,11.77
2018-12-24T00:04:42.637Z,11.81
2018-12-24T00:05:42.622Z,11.81
2018-12-24T00:06:42.616Z,11.78
2018-12-24T00:07:42.597Z,11.84
2018-12-24T00:08:42.586Z,11.81
2018-12-24T00:09:42.574Z,11.75
2018-12-24T00:10:42.562Z,11.82
2018-12-24T00:11:42.554Z,11.85
2018-12-24T00:12:42.541Z,11.72
2018-12-24T00:13:42.530Z,11.74
2018-12-24T00:14:42.520Z,11.74
2018-12-24T00:15:42.509Z,11.79
2018-12-24T00:16:42.495Z,11.84
2018-12-24T00:17:42.486Z,11.78
2018-12-24T00:18:42.476Z,11.67
2018-12-24T00:19:42.466Z,11.78
2018-12-24T00:20:42.452Z,11.74
2018-12-24T00:21:42.443Z,11.81
2018-12-24T00:22:42.435Z,11.82
2018-12-24T00:23:42.421Z,11.75
2018-12-24T00:24:42.408Z,11.77
2018-12-24T00:25:42.399Z,11.88
2018-12-24T00:26:42.388Z,11.96
2018-12-24T00:27:42.377Z,12.07
2018-12-24T00:28:42.365Z,12.00
2018-12-24T00:29:42.356Z,12.01
2018-12-24T00:30:42.343Z,11.94
2018-12-24T00:31:42.334Z,11.90
2018-12-24T00:32:42.322Z,11.94
2018-12-24T00:33:42.312Z,11.88
2018-12-24T00:34:42.301Z,11.85
2018-12-24T00:35:42.288Z,11.93
2018-12-24T00:36:42.279Z,11.84
2018-12-24T00:37:42.270Z,11.85
2018-12-24T00:38:42.260Z,11.82
2018-12-24T00:39:42.247Z,11.87
2018-12-24T00:40:42.234Z,11.98
2018-12-24T00:41:42.227Z,11.97
2018-12-24T00:42:42.215Z,11.81
2018-12-24T00:43:42.202Z,11.93
2018-12-24T00:44:42.192Z,11.93
2018-12-24T00:45:42.180Z,11.85
2018-12-24T00:46:42.171Z,11.85
2018-12-24T00:47:42.158Z,11.88
2018-12-24T00:48:42.148Z,11.84
2018-12-24T00:49:42.136Z,11.85
2018-12-24T00:50:42.128Z,11.94
2018-12-24T00:51:42.116Z,11.81
2018-12-24T00:52:42.104Z,11.88
2018-12-24T00:53:42.092Z,11.90
2018-12-24T00:54:42.085Z,11.85
2018-12-24T00:55:42.073Z,11.88
2018-12-24T00:56:42.063Z,11.85
2018-12-24T00:57:42.051Z,11.85
2018-12-24T00:58:42.040Z,11.77
2018-12-24T00:59:42.033Z,11.82
2018-12-24T01:00:42.018Z,11.78
2018-12-24T01:01:42.007Z,11.87
2018-12-24T01:02:41.997Z,11.88
2018-12-24T01:03:41.986Z,11.81
2018-12-24T01:04:41.974Z,11.84
2018-12-24T01:05:41.964Z,11.88
2018-12-24T01:06:41.962Z,11.90
2018-12-24T01:07:41.942Z,11.88
2018-12-24T01:08:41.931Z,11.84
2018-12-24T01:09:41.919Z,11.87
2018-12-24T01:10:41.909Z,11.84
2018-12-24T01:11:41.898Z,11.90
2018-12-24T01:12:41.885Z,11.85
2018-12-24T01:13:41.877Z,11.84
2018-12-24T01:14:41.865Z,11.88
2018-12-24T01:15:41.859Z,11.88
2018-12-24T01:16:41.845Z,11.82
2018-12-24T01:17:41.833Z,11.82
2018-12-24T01:18:41.824Z,11.84
2018-12-24T01:19:41.812Z,11.88
2018-12-24T01:20:41.801Z,11.81
2018-12-24T01:21:41.791Z,11.90
2018-12-24T01:22:41.779Z,11.88
2018-12-24T01:23:41.766Z,11.88
2018-12-24T01:24:41.760Z,11.81
2018-12-24T01:25:41.747Z,11.88
2018-12-24T01:26:41.734Z,11.85
2018-12-24T01:27:41.724Z,11.88
2018-12-24T01:28:41.714Z,11.81
2018-12-24T01:29:41.703Z,11.85
2018-12-24T01:30:41.690Z,11.84
2018-12-24T01:31:41.678Z,11.85
2018-12-24T01:32:41.666Z,11.98
2018-12-24T01:33:41.658Z,12.03
2018-12-24T01:34:41.646Z,11.97
2018-12-24T01:35:41.636Z,12.01
2018-12-24T01:36:41.624Z,11.93
2018-12-24T01:37:41.614Z,11.85
2018-12-24T01:38:41.601Z,11.81
2018-12-24T01:39:41.592Z,11.90
2018-12-24T01:40:41.584Z,11.87
2018-12-24T01:41:41.570Z,11.90
2018-12-24T01:42:41.559Z,11.88
2018-12-24T01:43:41.550Z,11.84
2018-12-24T01:44:41.536Z,11.85
2018-12-24T01:45:41.528Z,11.93
2018-12-24T01:46:41.514Z,11.98
2018-12-24T01:47:41.503Z,12.03
2018-12-24T01:48:41.493Z,11.93
2018-12-24T01:49:41.481Z,11.88
2018-12-24T01:50:41.470Z,11.98
2018-12-24T01:51:41.461Z,12.05
2018-12-24T01:52:41.449Z,12.00
2018-12-24T01:53:41.436Z,12.03
2018-12-24T01:54:41.428Z,11.97
2018-12-24T01:55:41.416Z,11.97
2018-12-24T01:56:41.405Z,12.01
2018-12-24T01:57:41.395Z,12.00
2018-12-24T01:58:41.382Z,12.01
2018-12-24T01:59:41.373Z,12.03
2018-12-24T02:00:41.361Z,11.97
2018-12-24T02:01:41.350Z,11.96
2018-12-24T02:02:41.340Z,12.01
2018-12-24T02:03:41.330Z,11.94
2018-12-24T02:04:41.318Z,12.03
2018-12-24T02:05:41.308Z,12.00
2018-12-24T02:06:41.297Z,11.87
2018-12-24T02:07:41.285Z,11.85
2018-12-24T02:08:41.275Z,11.84
2018-12-24T02:09:41.263Z,11.98
2018-12-24T02:10:41.253Z,11.96
2018-12-24T02:11:41.243Z,11.90
2018-12-24T02:12:42.398Z,11.88
2018-12-24T02:13:41.225Z,11.88
2018-12-24T02:14:41.209Z,11.90
2018-12-24T02:15:41.198Z,11.96
2018-12-24T02:16:41.187Z,11.85
2018-12-24T02:17:41.177Z,11.96
2018-12-24T02:18:41.166Z,11.90
2018-12-24T02:19:41.156Z,11.93
2018-12-24T02:20:41.144Z,11.85
2018-12-24T02:21:41.133Z,11.93
2018-12-24T02:22:41.121Z,11.85
2018-12-24T02:23:41.112Z,11.90
2018-12-24T02:24:41.099Z,11.90
2018-12-24T02:25:41.293Z,11.98
2018-12-24T02:26:41.079Z,11.96
2018-12-24T02:27:41.068Z,11.96
2018-12-24T02:28:41.057Z,11.97
2018-12-24T02:29:41.047Z,11.88
2018-12-24T02:30:41.035Z,11.90
2018-12-24T02:31:41.026Z,11.97
2018-12-24T02:32:41.013Z,11.98
2018-12-24T02:33:41.004Z,11.84
2018-12-24T02:34:40.993Z,11.93
2018-12-24T02:35:40.983Z,11.93
2018-12-24T02:36:40.972Z,11.85
2018-12-24T02:37:40.959Z,11.88
2018-12-24T02:38:40.949Z,11.93
2018-12-24T02:39:40.938Z,11.98
2018-12-24T02:40:40.929Z,11.98
2018-12-24T02:41:40.914Z,12.07
2018-12-24T02:42:40.906Z,12.08
2018-12-24T02:43:40.896Z,12.00
2018-12-24T02:44:40.883Z,11.98
2018-12-24T02:45:40.875Z,12.04
2018-12-24T02:46:40.966Z,11.96
2018-12-24T02:47:40.850Z,12.04
2018-12-24T02:48:40.840Z,11.98
2018-12-24T02:49:40.828Z,12.00
2018-12-24T02:50:40.820Z,12.01
2018-12-24T02:51:40.810Z,12.00
2018-12-24T02:52:40.794Z,12.04
2018-12-24T02:53:40.789Z,11.97
2018-12-24T02:54:40.776Z,11.87
2018-12-24T02:55:40.763Z,11.88
2018-12-24T02:56:40.754Z,11.88
2018-12-24T02:57:40.742Z,11.87
2018-12-24T02:58:40.733Z,11.90
2018-12-24T02:59:40.720Z,11.93
2018-12-24T03:00:40.709Z,11.85
2018-12-24T03:01:40.696Z,11.90
2018-12-24T03:02:40.690Z,11.88
2018-12-24T03:03:40.677Z,11.85
2018-12-24T03:04:40.665Z,11.90
2018-12-24T03:05:40.661Z,11.94
2018-12-24T03:06:40.644Z,11.90
2018-12-24T03:07:40.634Z,11.97
2018-12-24T03:08:40.622Z,12.01
2018-12-24T03:09:40.611Z,11.90
2018-12-24T03:10:40.603Z,11.96
2018-12-24T03:11:40.591Z,11.88
2018-12-24T03:12:40.579Z,11.85
2018-12-24T03:13:40.568Z,11.87
2018-12-24T03:14:40.560Z,11.94
2018-12-24T03:15:40.548Z,11.94
2018-12-24T03:16:40.538Z,11.96
2018-12-24T03:17:40.525Z,11.88
2018-12-24T03:18:40.516Z,11.94
2018-12-24T03:19:40.506Z,11.88
2018-12-24T03:20:40.496Z,11.88
2018-12-24T03:21:40.485Z,11.87
2018-12-24T03:22:40.474Z,11.88
2018-12-24T03:23:40.464Z,11.93
2018-12-24T03:24:40.449Z,11.98
2018-12-24T03:25:40.440Z,11.96
2018-12-24T03:26:40.430Z,11.87
2018-12-24T03:27:40.418Z,11.90
2018-12-24T03:28:40.407Z,11.97
2018-12-24T03:29:40.396Z,12.04
2018-12-24T03:30:40.387Z,11.88
2018-12-24T03:31:40.377Z,12.03
2018-12-24T03:32:40.364Z,12.00
2018-12-24T03:33:40.352Z,12.04
2018-12-24T03:34:40.342Z,12.03
2018-12-24T03:35:40.331Z,11.98
2018-12-24T03:36:40.321Z,12.00
2018-12-24T03:37:40.322Z,12.03
2018-12-24T03:38:40.299Z,11.97
2018-12-24T03:39:40.288Z,11.97
2018-12-24T03:40:40.277Z,11.98
2018-12-24T03:41:40.264Z,11.96
2018-12-24T03:42:40.257Z,12.04
2018-12-24T03:43:40.244Z,11.96
2018-12-24T03:44:40.234Z,11.98
2018-12-24T03:45:40.225Z,11.97
2018-12-24T03:46:40.211Z,11.97
2018-12-24T03:47:40.201Z,11.90
2018-12-24T03:48:40.191Z,11.85
2018-12-24T03:49:40.181Z,11.90
2018-12-24T03:50:40.168Z,11.85
2018-12-24T03:51:40.161Z,11.82
2018-12-24T03:52:40.146Z,11.84
2018-12-24T03:53:40.137Z,11.88
2018-12-24T03:54:40.126Z,11.88
2018-12-24T03:55:40.117Z,11.87
2018-12-24T03:56:40.105Z,11.88
2018-12-24T03:57:40.093Z,12.01
2018-12-24T03:58:40.085Z,11.93
2018-12-24T03:59:40.072Z,11.88
2018-12-24T04:00:40.060Z,12.03
2018-12-24T04:01:40.051Z,11.94
2018-12-24T04:02:40.039Z,11.98
2018-12-24T04:03:40.028Z,11.90
2018-12-24T04:04:40.024Z,12.00
2018-12-24T04:05:40.131Z,12.03
2018-12-24T04:06:40.001Z,12.03
2018-12-24T04:07:39.988Z,11.98
2018-12-24T04:08:39.974Z,12.00
2018-12-24T04:09:39.965Z,12.04
2018-12-24T04:10:39.954Z,11.98
2018-12-24T04:11:39.971Z,11.97
2018-12-24T04:12:39.931Z,12.04
2018-12-24T04:13:39.922Z,12.03
2018-12-24T04:14:39.912Z,12.01
2018-12-24T04:15:39.901Z,11.96
2018-12-24T04:16:39.890Z,11.84
2018-12-24T04:17:39.879Z,11.85
2018-12-24T04:18:39.868Z,11.87
2018-12-24T04:19:39.890Z,11.90
2018-12-24T04:20:39.846Z,11.85
2018-12-24T04:21:39.835Z,11.96
2018-12-24T04:22:39.828Z,11.87
2018-12-24T04:23:39.815Z,11.90
2018-12-24T04:24:39.803Z,11.97
2018-12-24T04:25:39.793Z,11.96
2018-12-24T04:26:39.783Z,11.90
2018-12-24T04:27:41.911Z,11.85
2018-12-24T04:28:39.886Z,11.90
2018-12-24T04:29:39.751Z,11.87
2018-12-24T04:30:39.740Z,11.98
2018-12-24T04:31:39.731Z,11.84
2018-12-24T04:32:39.718Z,11.90
2018-12-24T04:33:39.707Z,11.90
2018-12-24T04:34:39.696Z,11.88
2018-12-24T04:35:39.685Z,11.88
2018-12-24T04:36:39.677Z,11.85
2018-12-24T04:37:39.664Z,11.93
2018-12-24T04:38:39.746Z,11.97
2018-12-24T04:39:39.642Z,11.94
2018-12-24T04:40:39.634Z,11.98
2018-12-24T04:41:39.622Z,12.03
2018-12-24T04:42:39.616Z,11.98
2018-12-24T04:43:39.603Z,12.01
2018-12-24T04:44:39.594Z,12.04
2018-12-24T04:45:39.580Z,12.05
2018-12-24T04:46:39.568Z,12.00
2018-12-24T04:47:39.558Z,12.00
2018-12-24T04:48:39.546Z,12.04
2018-12-24T04:49:39.537Z,12.07
2018-12-24T04:50:39.527Z,11.97
2018-12-24T04:51:39.516Z,12.03
2018-12-24T04:52:39.503Z,12.00
2018-12-24T04:53:39.497Z,12.07
2018-12-24T04:54:39.486Z,12.03
2018-12-24T04:55:39.482Z,12.03
2018-12-24T04:56:39.463Z,12.11
2018-12-24T04:57:39.460Z,12.08
2018-12-24T04:58:39.442Z,12.07
2018-12-24T04:59:39.430Z,12.13
2018-12-24T05:00:39.420Z,12.08
2018-12-24T05:01:39.410Z,12.13
2018-12-24T05:02:39.398Z,12.13
2018-12-24T05:03:39.390Z,12.05
2018-12-24T05:04:39.382Z,12.05
2018-12-24T05:05:39.366Z,12.19
2018-12-24T05:06:39.356Z,12.23
2018-12-24T05:07:39.346Z,12.19
2018-12-24T05:08:39.337Z,12.08
2018-12-24T05:09:39.323Z,12.21
2018-12-24T05:10:39.317Z,12.19
2018-12-24T05:11:39.305Z,12.22
2018-12-24T05:12:39.293Z,12.22
2018-12-24T05:13:41.010Z,12.31
2018-12-24T05:14:39.272Z,12.34
2018-12-24T05:15:39.262Z,12.36
2018-12-24T05:16:39.252Z,12.34
2018-12-24T05:17:39.243Z,12.34
2018-12-24T05:18:39.233Z,12.29
2018-12-24T05:19:39.221Z,12.34
2018-12-24T05:20:39.210Z,12.40
2018-12-24T05:21:39.199Z,12.41
2018-12-24T05:22:39.188Z,12.37
2018-12-24T05:23:39.380Z,12.38
2018-12-24T05:24:39.170Z,12.46
2018-12-24T05:25:39.156Z,12.49
2018-12-24T05:26:39.148Z,12.58
2018-12-24T05:27:39.141Z,12.43
2018-12-24T05:28:39.127Z,12.66
2018-12-24T05:29:39.116Z,12.54
2018-12-24T05:30:39.107Z,12.61
2018-12-24T05:31:39.099Z,12.54
2018-12-24T05:32:39.086Z,12.51
2018-12-24T05:33:39.072Z,12.61
2018-12-24T05:34:39.063Z,12.66
2018-12-24T05:35:39.060Z,12.74
2018-12-24T05:36:39.043Z,12.67
2018-12-24T05:37:39.035Z,12.70
2018-12-24T05:38:39.021Z,12.66
2018-12-24T05:39:39.012Z,12.70
2018-12-24T05:40:38.999Z,12.41
2018-12-24T05:41:38.991Z,12.08
2018-12-24T05:42:38.978Z,11.67
2018-12-24T05:43:38.969Z,11.12
2018-12-24T05:44:38.957Z,10.52
2018-12-24T05:45:38.947Z,10.14
2018-12-24T05:46:38.937Z,10.09
2018-12-24T05:47:38.923Z,9.89
2018-12-24T05:48:38.914Z,9.74
2018-12-24T05:49:38.900Z,9.77
2018-12-24T05:50:38.891Z,9.78
2018-12-24T05:51:38.877Z,9.74
2018-12-24T05:52:38.863Z,9.75
2018-12-24T05:53:38.853Z,9.71
2018-12-24T05:54:38.841Z,9.67
2018-12-24T05:55:38.829Z,9.56
2018-12-24T05:56:38.816Z,9.56
2018-12-24T05:57:38.806Z,9.45
2018-12-24T05:58:38.791Z,9.45
2018-12-24T05:59:38.782Z,9.48
2018-12-24T06:00:38.766Z,9.55
2018-12-24T06:01:38.755Z,9.44
2018-12-24T06:02:38.742Z,9.52
2018-12-24T06:03:38.732Z,9.59
2018-12-24T06:04:38.717Z,9.56
2018-12-24T06:05:38.707Z,9.56
2018-12-24T06:06:38.695Z,9.40
2018-12-24T06:07:38.680Z,9.37
2018-12-24T06:08:38.665Z,9.30
2018-12-24T06:09:38.654Z,9.27
2018-12-24T06:10:38.641Z,9.32
2018-12-24T06:11:38.629Z,9.26
2018-12-24T06:12:38.615Z,9.22
2018-12-24T06:13:38.602Z,9.24
2018-12-24T06:14:38.593Z,9.19
2018-12-24T06:15:38.578Z,9.16
2018-12-24T06:16:38.565Z,9.17
2018-12-24T06:17:38.551Z,9.31
2018-12-24T06:18:38.538Z,9.23
2018-12-24T06:19:38.529Z,9.23
2018-12-24T06:20:38.514Z,9.16
2018-12-24T06:21:38.500Z,9.19
2018-12-24T06:22:38.489Z,9.15
2018-12-24T06:23:38.475Z,9.20
2018-12-24T06:24:38.462Z,9.23
2018-12-24T06:25:38.454Z,9.23
2018-12-24T06:26:38.440Z,9.19
2018-12-24T06:27:38.423Z,9.22
2018-12-24T06:28:38.409Z,9.23
2018-12-24T06:29:38.396Z,9.10
2018-12-24T06:30:38.385Z,9.15
2018-12-24T06:31:38.372Z,9.16
2018-12-24T06:32:38.358Z,9.23
2018-12-24T06:33:38.346Z,9.23
2018-12-24T06:34:38.331Z,9.19
2018-12-24T06:35:38.321Z,9.20
2018-12-24T06:36:38.305Z,9.13
2018-12-24T06:37:38.293Z,9.20
2018-12-24T06:38:38.279Z,9.13
2018-12-24T06:39:38.267Z,9.16
2018-12-24T06:40:38.255Z,9.22
2018-12-24T06:41:38.243Z,9.16
2018-12-24T06:42:38.229Z,9.31
2018-12-24T06:43:38.217Z,9.26
2018-12-24T06:44:38.202Z,9.19
2018-12-24T06:45:38.188Z,9.20
2018-12-24T06:46:38.180Z,9.27
2018-12-24T06:47:38.173Z,9.17
2018-12-24T06:48:38.152Z,9.22
2018-12-24T06:49:38.144Z,9.15
2018-12-24T06:50:38.124Z,9.16
2018-12-24T06:51:38.114Z,9.27
2018-12-24T06:52:38.097Z,9.27
2018-12-24T06:53:38.084Z,9.27
2018-12-24T06:54:38.076Z,9.26
2018-12-24T06:55:38.058Z,9.24
2018-12-24T06:56:38.046Z,9.27
2018-12-24T06:57:38.033Z,9.30
2018-12-24T06:58:38.022Z,9.20
2018-12-24T06:59:38.009Z,9.24
2018-12-24T07:00:37.997Z,9.32
2018-12-24T07:01:37.984Z,9.26
2018-12-24T07:02:37.972Z,9.31
2018-12-24T07:03:37.957Z,9.30
2018-12-24T07:04:37.944Z,9.27
2018-12-24T07:05:37.933Z,9.27
2018-12-24T07:06:37.923Z,9.31
2018-12-24T07:07:37.907Z,9.30
2018-12-24T07:08:37.895Z,9.30
2018-12-24T07:09:37.880Z,9.30
2018-12-24T07:10:37.867Z,9.32
2018-12-24T07:11:37.856Z,9.32
2018-12-24T07:12:37.843Z,9.37
2018-12-24T07:13:37.829Z,9.38
2018-12-24T07:14:37.816Z,9.32
2018-12-24T07:15:37.806Z,9.40
2018-12-24T07:16:37.794Z,9.32
2018-12-24T07:17:37.786Z,9.40
2018-12-24T07:18:37.767Z,9.38
2018-12-24T07:19:37.755Z,9.31
2018-12-24T07:20:37.741Z,9.35
2018-12-24T07:21:37.730Z,9.30
2018-12-24T07:22:37.716Z,9.30
2018-12-24T07:23:37.704Z,9.31
2018-12-24T07:24:37.695Z,9.23
2018-12-24T07:25:37.678Z,9.31
2018-12-24T07:26:37.666Z,9.30
2018-12-24T07:27:37.656Z,9.26
2018-12-24T07:28:37.642Z,9.34
2018-12-24T07:29:37.628Z,9.24
2018-12-24T07:30:37.616Z,9.27
2018-12-24T07:31:37.607Z,9.20
2018-12-24T07:32:37.591Z,9.26
2018-12-24T07:33:37.579Z,9.26
2018-12-24T07:34:37.565Z,9.20
2018-12-24T07:35:37.552Z,9.32
2018-12-24T07:36:37.538Z,9.32
2018-12-24T07:37:37.526Z,9.31
2018-12-24T07:38:37.515Z,9.34
2018-12-24T07:39:37.504Z,9.34
2018-12-24T07:40:37.490Z,9.27
2018-12-24T07:41:37.479Z,9.30
2018-12-24T07:42:37.468Z,9.27
2018-12-24T07:43:37.452Z,9.31
2018-12-24T07:44:37.440Z,9.27
2018-12-24T07:45:37.427Z,9.24
2018-12-24T07:46:37.415Z,9.32
2018-12-24T07:47:37.405Z,9.27
2018-12-24T07:48:37.390Z,9.23
2018-12-24T07:49:37.377Z,9.26
2018-12-24T07:50:37.366Z,9.34
2018-12-24T07:51:37.351Z,9.27
2018-12-24T07:52:37.341Z,9.24
2018-12-24T07:53:37.329Z,9.30
2018-12-24T07:54:37.316Z,9.23
2018-12-24T07:55:37.307Z,9.31
2018-12-24T07:56:37.290Z,9.23
2018-12-24T07:57:37.277Z,9.26
2018-12-24T07:58:39.428Z,9.17
2018-12-24T07:59:37.254Z,9.17
2018-12-24T08:00:37.241Z,9.19
2018-12-24T08:01:37.228Z,9.22
2018-12-24T08:02:37.216Z,9.20
2018-12-24T08:03:37.205Z,9.26
2018-12-24T08:04:37.191Z,9.31
2018-12-24T08:05:37.178Z,9.22
2018-12-24T08:06:37.165Z,9.16
2018-12-24T08:07:37.153Z,9.22
2018-12-24T08:08:37.141Z,9.15
2018-12-24T08:09:37.128Z,9.23
2018-12-24T08:10:37.120Z,9.17
2018-12-24T08:11:37.103Z,9.26
2018-12-24T08:12:37.091Z,9.26
2018-12-24T08:13:37.077Z,9.32
2018-12-24T08:14:37.070Z,9.27
2018-12-24T08:15:37.059Z,9.37
2018-12-24T08:16:37.041Z,9.34
2018-12-24T08:17:37.029Z,9.27
2018-12-24T08:18:37.016Z,9.31
2018-12-24T08:19:37.004Z,9.30
2018-12-24T08:20:36.991Z,9.27
2018-12-24T08:21:36.979Z,9.23
2018-12-24T08:22:36.966Z,9.15
2018-12-24T08:23:36.954Z,9.24
2018-12-24T08:24:36.941Z,9.16
2018-12-24T08:25:36.928Z,9.19
2018-12-24T08:26:36.968Z,9.24
2018-12-24T08:27:36.907Z,9.22
2018-12-24T08:28:36.891Z,9.23
2018-12-24T08:29:36.878Z,9.26
2018-12-24T08:30:36.867Z,9.32
2018-12-24T08:31:36.855Z,9.30
2018-12-24T08:32:36.849Z,9.22
2018-12-24T08:33:36.829Z,9.31
2018-12-24T08:34:36.817Z,9.22
2018-12-24T08:35:36.805Z,9.30
2018-12-24T08:36:36.790Z,9.22
2018-12-24T08:37:36.779Z,9.16
2018-12-24T08:38:36.765Z,9.20
2018-12-24T08:39:36.759Z,9.23
2018-12-24T08:40:36.740Z,9.16
2018-12-24T08:41:36.728Z,9.30
2018-12-24T08:42:36.718Z,9.26
2018-12-24T08:43:36.702Z,9.32
2018-12-24T08:44:41.690Z,9.30
2018-12-24T08:45:36.679Z,9.27
2018-12-24T08:46:36.665Z,9.22
2018-12-24T08:47:36.655Z,9.30
2018-12-24T08:48:36.638Z,9.16
2018-12-24T08:49:36.627Z,9.17
2018-12-24T08:50:36.615Z,9.22
2018-12-24T08:51:36.604Z,9.13
2018-12-24T08:52:36.593Z,9.19
2018-12-24T08:53:36.580Z,9.15
2018-12-24T08:54:36.565Z,9.12
2018-12-24T08:55:36.557Z,9.17
2018-12-24T08:56:36.540Z,9.12
2018-12-24T08:57:36.529Z,9.16
2018-12-24T08:58:36.516Z,9.22
2018-12-24T08:59:36.505Z,9.16
2018-12-24T09:00:36.491Z,9.06
2018-12-24T09:01:36.477Z,9.12
2018-12-24T09:02:36.466Z,9.08
2018-12-24T09:03:36.455Z,9.06
2018-12-24T09:04:36.440Z,9.08
2018-12-24T09:05:36.429Z,8.98
2018-12-24T09:06:36.416Z,8.89
2018-12-24T09:07:36.406Z,8.91
2018-12-24T09:08:36.391Z,9.00
2018-12-24T09:09:36.382Z,8.98
2018-12-24T09:10:36.367Z,8.94
2018-12-24T09:11:36.357Z,8.94
2018-12-24T09:12:36.342Z,9.00
2018-12-24T09:13:36.331Z,9.00
2018-12-24T09:14:36.318Z,9.00
2018-12-24T09:15:36.306Z,8.97
2018-12-24T09:16:36.296Z,8.97
2018-12-24T09:17:36.287Z,8.96
2018-12-24T09:18:36.269Z,8.97
2018-12-24T09:19:36.264Z,8.97
2018-12-24T09:20:36.246Z,8.96
2018-12-24T09:21:36.232Z,8.94
2018-12-24T09:22:36.222Z,8.97
2018-12-24T09:23:36.208Z,9.01
2018-12-24T09:24:36.195Z,8.98
2018-12-24T09:25:36.185Z,9.12
2018-12-24T09:26:36.174Z,9.06
2018-12-24T09:27:36.159Z,9.08
2018-12-24T09:28:36.147Z,9.20
2018-12-24T09:29:36.134Z,9.16
2018-12-24T09:30:36.122Z,9.23
2018-12-24T09:31:36.112Z,9.27
2018-12-24T09:32:36.097Z,9.27
2018-12-24T09:33:36.084Z,9.24
2018-12-24T09:34:36.077Z,9.35
2018-12-24T09:35:36.062Z,9.35
2018-12-24T09:36:36.049Z,9.26
2018-12-24T09:37:36.037Z,9.22
2018-12-24T09:38:36.025Z,9.23
2018-12-24T09:39:36.013Z,9.30
2018-12-24T09:40:36.001Z,9.16
2018-12-24T09:41:35.988Z,9.24
2018-12-24T09:42:35.977Z,9.27
2018-12-24T09:43:35.966Z,9.22
2018-12-24T09:44:35.952Z,9.17
2018-12-24T09:45:35.941Z,9.10
2018-12-24T09:46:35.926Z,9.13
2018-12-24T09:47:35.915Z,9.27
2018-12-24T09:48:35.903Z,9.24
2018-12-24T09:49:35.890Z,9.24
2018-12-24T09:50:35.879Z,9.32
2018-12-24T09:51:35.867Z,9.27
2018-12-24T09:52:35.855Z,9.30
2018-12-24T09:53:35.844Z,9.22
2018-12-24T09:54:35.837Z,9.27
2018-12-24T09:55:35.820Z,9.23
2018-12-24T09:56:35.805Z,9.20
2018-12-24T09:57:35.795Z,9.08
2018-12-24T09:58:35.782Z,9.01
2018-12-24T09:59:35.769Z,9.12
2018-12-24T10:00:35.758Z,9.16
2018-12-24T10:01:35.745Z,9.13
2018-12-24T10:02:35.731Z,9.13
2018-12-24T10:03:35.721Z,9.04
2018-12-24T10:04:35.707Z,9.08
2018-12-24T10:05:35.695Z,9.19
2018-12-24T10:06:35.683Z,9.16
2018-12-24T10:07:35.672Z,9.15
2018-12-24T10:08:35.659Z,9.04
2018-12-24T10:09:35.649Z,9.10
2018-12-24T10:10:35.634Z,9.03
2018-12-24T10:11:35.623Z,8.98
2018-12-24T10:12:35.612Z,9.06
2018-12-24T10:13:35.596Z,9.12
2018-12-24T10:14:35.584Z,8.97
2018-12-24T10:15:35.574Z,9.08
2018-12-24T10:16:35.560Z,8.97
2018-12-24T10:17:35.545Z,9.00
2018-12-24T10:18:35.534Z,9.03
2018-12-24T10:19:35.520Z,8.97
2018-12-24T10:20:35.511Z,8.86
2018-12-24T10:21:35.497Z,8.93
2018-12-24T10:22:35.487Z,8.88
2018-12-24T10:23:35.472Z,8.94
2018-12-24T10:24:35.459Z,8.86
2018-12-24T10:25:35.448Z,8.83
2018-12-24T10:26:35.434Z,8.93
2018-12-24T10:27:35.423Z,8.89
2018-12-24T10:28:35.414Z,8.89
2018-12-24T10:29:35.399Z,8.96
2018-12-24T10:30:35.386Z,8.94
2018-12-24T10:31:35.372Z,9.00
2018-12-24T10:32:35.359Z,8.96
2018-12-24T10:33:35.347Z,9.00
2018-12-24T10:34:35.335Z,9.01
2018-12-24T10:35:35.323Z,8.94
2018-12-24T10:36:35.310Z,8.97
2018-12-24T10:37:35.299Z,8.94
2018-12-24T10:38:35.284Z,8.86
2018-12-24T10:39:35.271Z,8.86
2018-12-24T10:40:35.258Z,8.80
2018-12-24T10:41:35.246Z,8.83
2018-12-24T10:42:35.232Z,8.85
2018-12-24T10:43:35.218Z,8.76
2018-12-24T10:44:35.207Z,8.73
2018-12-24T10:45:35.195Z,8.76
2018-12-24T10:46:35.183Z,8.82
2018-12-24T10:47:35.274Z,8.78
2018-12-24T10:48:35.156Z,8.83
2018-12-24T10:49:35.143Z,8.78
2018-12-24T10:50:35.131Z,8.89
2018-12-24T10:51:35.123Z,8.91
2018-12-24T10:52:35.148Z,8.85
2018-12-24T10:53:35.092Z,8.82
2018-12-24T10:54:35.082Z,8.80
2018-12-24T10:55:35.068Z,8.68
2018-12-24T10:56:35.057Z,8.70
2018-12-24T10:57:35.045Z,8.68
2018-12-24T10:58:35.030Z,8.70
2018-12-24T10:59:35.018Z,8.68
2018-12-24T11:00:35.005Z,8.65
2018-12-24T11:01:34.993Z,8.58
2018-12-24T11:02:34.980Z,8.58
2018-12-24T11:03:34.967Z,8.64
2018-12-24T11:04:34.954Z,8.58
2018-12-24T11:05:34.943Z,8.68
2018-12-24T11:06:34.929Z,8.63
2018-12-24T11:07:34.914Z,8.55
2018-12-24T11:08:34.901Z,8.57
2018-12-24T11:09:34.890Z,8.42
2018-12-24T11:10:34.877Z,8.40
2018-12-24T11:11:34.865Z,8.39
2018-12-24T11:12:34.852Z,8.39
2018-12-24T11:13:34.839Z,8.36
2018-12-24T11:14:34.825Z,8.39
2018-12-24T11:15:34.812Z,8.40
2018-12-24T11:16:34.797Z,8.31
2018-12-24T11:17:34.787Z,8.34
2018-12-24T11:18:34.774Z,8.42
2018-12-24T11:19:34.761Z,8.34
2018-12-24T11:20:34.748Z,8.36
2018-12-24T11:21:34.736Z,8.36
2018-12-24T11:22:34.721Z,8.36
2018-12-24T11:23:34.709Z,8.34
2018-12-24T11:24:34.694Z,8.46
2018-12-24T11:25:34.680Z,8.47
2018-12-24T11:26:34.670Z,8.45
2018-12-24T11:27:34.657Z,8.60
2018-12-24T11:28:34.645Z,8.58
2018-12-24T11:29:34.632Z,8.61
2018-12-24T11:30:34.620Z,8.64
2018-12-24T11:31:34.607Z,8.71
2018-12-24T11:32:34.591Z,8.75
2018-12-24T11:33:34.580Z,8.75
2018-12-24T11:34:34.568Z,8.71
2018-12-24T11:35:34.553Z,8.88
2018-12-24T11:36:34.540Z,8.93
2018-12-24T11:37:34.527Z,8.94
2018-12-24T11:38:34.516Z,8.97
2018-12-24T11:39:34.505Z,8.94
2018-12-24T11:40:34.488Z,8.97
2018-12-24T11:41:34.475Z,8.94
2018-12-24T11:42:34.465Z,8.97
2018-12-24T11:43:34.453Z,9.00
2018-12-24T11:44:34.437Z,9.13
2018-12-24T11:45:36.061Z,9.13
2018-12-24T11:46:34.412Z,9.19
2018-12-24T11:47:34.399Z,9.17
2018-12-24T11:48:34.387Z,9.17
2018-12-24T11:49:34.373Z,9.20
2018-12-24T11:50:34.363Z,9.13
2018-12-24T11:51:34.348Z,9.16
2018-12-24T11:52:34.336Z,9.16
2018-12-24T11:53:34.323Z,9.04
2018-12-24T11:54:34.310Z,9.04
2018-12-24T11:55:34.298Z,9.15
2018-12-24T11:56:34.285Z,9.15
2018-12-24T11:57:34.276Z,9.30
2018-12-24T11:58:34.261Z,9.30
2018-12-24T11:59:34.251Z,9.31
2018-12-24T12:00:34.236Z,9.34
2018-12-24T12:01:34.224Z,9.53
2018-12-24T12:02:34.213Z,9.44
2018-12-24T12:03:34.196Z,9.32
2018-12-24T12:04:34.183Z,9.37
2018-12-24T12:05:34.169Z,9.45
2018-12-24T12:06:34.158Z,9.44
2018-12-24T12:07:34.144Z,9.42
2018-12-24T12:08:34.133Z,9.48
2018-12-24T12:09:34.120Z,9.41
2018-12-24T12:10:34.108Z,9.48
2018-12-24T12:11:34.098Z,9.53
2018-12-24T12:12:34.085Z,9.50
2018-12-24T12:13:34.072Z,9.52
2018-12-24T12:14:34.061Z,9.59
2018-12-24T12:15:42.345Z,9.40
2018-12-24T12:16:34.035Z,9.49
2018-12-24T12:17:34.022Z,9.42
2018-12-24T12:18:34.010Z,9.62
2018-12-24T12:19:33.997Z,9.59
2018-12-24T12:20:33.984Z,9.74
2018-12-24T12:21:33.972Z,9.71
2018-12-24T12:22:33.961Z,9.83
2018-12-24T12:23:33.950Z,9.80
2018-12-24T12:24:33.935Z,9.77
2018-12-24T12:25:33.923Z,9.86
2018-12-24T12:26:33.914Z,9.83
2018-12-24T12:27:33.900Z,9.78
2018-12-24T12:28:33.889Z,9.80
2018-12-24T12:29:33.876Z,9.81
2018-12-24T12:30:33.864Z,9.85
2018-12-24T12:31:33.852Z,9.85
2018-12-24T12:32:33.841Z,9.78
2018-12-24T12:33:36.005Z,9.83
2018-12-24T12:34:33.816Z,9.86
2018-12-24T12:35:33.805Z,9.86
2018-12-24T12:36:33.793Z,9.98
2018-12-24T12:37:33.780Z,9.98
2018-12-24T12:38:33.768Z,10.01
2018-12-24T12:39:33.758Z,9.98
2018-12-24T12:40:33.746Z,10.02
2018-12-24T12:41:33.733Z,9.95
2018-12-24T12:42:33.721Z,10.04
2018-12-24T12:43:33.708Z,10.06
2018-12-24T12:44:33.696Z,9.93
2018-12-24T12:45:33.685Z,9.96
2018-12-24T12:46:33.672Z,9.89
2018-12-24T12:47:33.660Z,9.85
2018-12-24T12:48:33.650Z,9.83
2018-12-24T12:49:33.636Z,9.81
2018-12-24T12:50:33.625Z,9.81
2018-12-24T12:51:33.616Z,9.81
2018-12-24T12:52:33.601Z,9.77
2018-12-24T12:53:33.588Z,9.80
2018-12-24T12:54:33.578Z,9.89
2018-12-24T12:55:33.567Z,9.85
2018-12-24T12:56:33.552Z,9.78
2018-12-24T12:57:33.542Z,9.80
2018-12-24T12:58:33.529Z,9.91
2018-12-24T12:59:33.517Z,9.81
2018-12-24T13:00:33.504Z,9.80
2018-12-24T13:01:33.493Z,9.85
2018-12-24T13:02:33.482Z,9.78
2018-12-24T13:03:33.472Z,9.83
2018-12-24T13:04:33.458Z,9.88
2018-12-24T13:05:33.447Z,9.99
2018-12-24T13:06:33.433Z,9.91